Time;durP1;ratioP1;P1;durP2;ratioP2;P2;SDS_P1;SDS_P2;PMS_P1;PMS_P2;Temp;Humidity;BMP_temperature;BMP_pressure;BME280_temperature;BME280_humidity;BME280_pressure;Samples;Min_cycle;Max_cycle;Signal;HPM_P1;HPM_P2
2022/06/15 00:01:18;;;;;;;5.60;2.22;;;;;;;24.71;40.79;101104.09;4198871;28;20036;-66
2022/06/15 00:03:20;;;;;;;8.07;2.90;;;;;;;24.56;40.80;101082.78;4198415;28;20418;-66
2022/06/15 00:05:21;;;;;;;5.53;2.95;;;;;;;24.70;40.48;101097.69;4198601;28;20045;-66
2022/06/15 00:07:22;;;;;;;3.33;1.83;;;;;;;24.67;40.65;101101.06;4198402;28;20098;-66
2022/06/15 00:09:32;;;;;;;6.00;2.20;;;;;;;24.71;40.50;101110.53;4198891;28;20044;-66
2022/06/15 00:11:39;;;;;;;4.40;1.80;;;;;;;24.74;40.74;101109.06;4199124;28;20036;-66
2022/06/15 00:13:43;;;;;;;3.13;1.95;;;;;;;24.69;40.57;101106.34;4198835;28;20041;-66
2022/06/15 00:15:46;;;;;;;3.88;2.08;;;;;;;24.68;40.64;101104.69;4198669;28;20045;-66
2022/06/15 00:17:47;;;;;;;2.47;1.77;;;;;;;24.73;40.47;101113.84;4198851;28;20048;-66
2022/06/15 00:19:51;;;;;;;5.35;2.17;;;;;;;24.74;40.55;101117.47;4198578;28;20045;-66
2022/06/15 00:21:52;;;;;;;2.38;2.10;;;;;;;24.73;40.50;101113.84;4198781;28;20427;-65
2022/06/15 00:23:57;;;;;;;5.82;2.25;;;;;;;24.74;40.73;101115.53;4198830;28;20044;-66
2022/06/15 00:25:58;;;;;;;4.13;2.28;;;;;;;24.74;40.69;101120.28;4198391;28;20048;-66
2022/06/15 00:28:00;;;;;;;2.92;2.22;;;;;;;24.74;40.72;101121.13;4197827;28;20066;-67
2022/06/15 00:30:02;;;;;;;3.67;2.13;;;;;;;24.75;40.87;101119.16;4198499;28;20070;-67
2022/06/15 00:32:08;;;;;;;3.40;1.85;;;;;;;24.64;40.54;101104.47;4197543;28;20037;-67
2022/06/15 00:34:10;;;;;;;4.97;1.80;;;;;;;24.74;40.78;101132.31;4198479;28;20102;-67
2022/06/15 00:36:15;;;;;;;4.07;1.83;;;;;;;24.75;40.69;101131.19;4198439;28;20017;-66
2022/06/15 00:38:17;;;;;;;6.50;2.20;;;;;;;24.75;40.70;101139.56;4198665;28;20040;-66
2022/06/15 00:40:18;;;;;;;2.63;2.00;;;;;;;24.76;40.83;101141.22;4198076;28;20365;-67
2022/06/15 00:42:20;;;;;;;3.45;2.65;;;;;;;24.76;40.76;101144.03;4198690;28;20817;-67
2022/06/15 00:44:21;;;;;;;2.38;1.98;;;;;;;24.77;40.88;101144.88;4198448;28;20090;-66
2022/06/15 00:46:28;;;;;;;2.35;1.67;;;;;;;24.76;40.76;101146.81;4198066;28;20097;-67
2022/06/15 00:48:30;;;;;;;4.45;1.60;;;;;;;24.76;40.60;101155.22;4197364;28;20041;-66
2022/06/15 00:50:34;;;;;;;3.40;2.03;;;;;;;24.76;40.76;101174.81;4198086;28;20071;-66
2022/06/15 00:53:08;;;;;;;3.80;2.25;;;;;;;24.75;40.77;101178.75;4198331;28;20044;-67
2022/06/15 00:55:37;;;;;;;3.55;1.67;;;;;;;24.75;40.58;101184.34;4198640;28;20048;-67
2022/06/15 00:57:42;;;;;;;5.22;2.00;;;;;;;24.78;40.78;101192.13;4195883;28;20130;-67
2022/06/15 00:59:54;;;;;;;3.95;2.15;;;;;;;24.78;40.71;101197.72;4198079;28;20098;-67
2022/06/15 01:01:56;;;;;;;3.15;1.58;;;;;;;24.78;40.59;101206.13;4197740;28;20086;-66
2022/06/15 01:04:00;;;;;;;2.25;1.40;;;;;;;24.77;40.66;101198.88;4197527;28;20048;-66
2022/06/15 01:06:31;;;;;;;3.13;1.65;;;;;;;24.75;40.69;101209.53;4198139;28;20090;-66
2022/06/15 01:08:55;;;;;;;3.10;1.80;;;;;;;24.78;40.50;101208.91;4200099;28;20036;-66
2022/06/15 01:11:19;;;;;;;2.92;1.80;;;;;;;24.78;40.66;101206.13;4198347;28;20040;-66
2022/06/15 01:13:35;;;;;;;3.53;1.75;;;;;;;24.77;40.53;101210.06;4198225;28;20036;-67
2022/06/15 01:15:55;;;;;;;3.70;1.77;;;;;;;24.76;40.60;101208.41;4198253;28;20094;-67
2022/06/15 01:18:15;;;;;;;4.63;1.75;;;;;;;24.74;40.59;101210.69;4199348;28;20071;-67
2022/06/15 01:21:14;;;;;;;2.22;1.80;;;;;;;24.73;40.56;101209.00;4197408;28;20045;-67
2022/06/15 01:23:43;;;;;;;2.63;1.88;;;;;;;24.77;40.61;101221.25;4145925;28;20104;-67
2022/06/15 01:26:09;;;;;;;4.80;2.05;;;;;;;24.75;40.90;101217.09;4146611;28;20425;-67
2022/06/15 01:28:45;;;;;;;5.13;1.90;;;;;;;24.77;40.76;101218.47;4165294;28;20040;-67
2022/06/15 01:30:52;;;;;;;2.80;1.98;;;;;;;24.77;40.60;101232.44;4198675;28;20045;-66
2022/06/15 01:33:02;;;;;;;4.38;1.95;;;;;;;24.79;40.95;101234.97;4197724;28;20094;-65
2022/06/15 01:35:14;;;;;;;2.13;1.50;;;;;;;24.78;40.62;101239.72;4198172;28;20373;-67
2022/06/15 01:37:21;;;;;;;4.40;1.90;;;;;;;24.78;40.64;101239.72;4197408;28;20040;-65
2022/06/15 01:39:55;;;;;;;2.42;1.50;;;;;;;24.75;40.58;101231.94;4197783;28;20089;-65
2022/06/15 01:42:20;;;;;;;3.15;1.75;;;;;;;24.77;40.64;101243.66;4198156;28;20537;-66
2022/06/15 01:44:38;;;;;;;4.32;1.58;;;;;;;24.79;41.08;101244.19;4201010;28;20040;-66
2022/06/15 01:46:44;;;;;;;2.75;1.90;;;;;;;24.82;41.10;101245.53;4201653;28;20102;-67
2022/06/15 01:48:51;;;;;;;2.55;1.95;;;;;;;24.81;40.76;101249.47;4200470;28;20082;-66
2022/06/15 01:50:58;;;;;;;2.60;1.45;;;;;;;24.81;40.68;101249.47;4200783;28;20040;-65
2022/06/15 01:53:25;;;;;;;2.53;2.03;;;;;;;24.80;40.75;101257.06;4200691;28;20094;-67
2022/06/15 01:55:38;;;;;;;1.63;1.50;;;;;;;24.55;40.57;101220.97;4201156;28;20048;-67
2022/06/15 01:57:42;;;;;;;1.67;1.50;;;;;;;24.82;41.10;101265.97;4200716;28;20032;-66
2022/06/15 02:00:08;;;;;;;3.58;1.58;;;;;;;24.82;40.94;101259.53;4204518;28;20082;-69
2022/06/15 02:02:26;;;;;;;3.05;1.55;;;;;;;24.81;40.87;101261.50;4218178;28;20024;-68
2022/06/15 02:04:31;;;;;;;2.83;1.55;;;;;;;24.82;40.74;101257.56;4217885;28;20433;-67
2022/06/15 02:06:44;;;;;;;2.70;1.87;;;;;;;24.81;41.04;101261.50;4218201;28;20039;-68
2022/06/15 02:09:20;;;;;;;2.30;1.55;;;;;;;24.81;40.93;101264.31;4200611;28;20044;-68
2022/06/15 02:11:31;;;;;;;2.40;1.92;;;;;;;24.81;40.73;101271.88;4200797;28;20052;-68
2022/06/15 02:13:47;;;;;;;1.73;1.55;;;;;;;24.83;40.66;101281.66;4200555;28;20036;-68
2022/06/15 02:15:59;;;;;;;5.38;1.75;;;;;;;24.82;40.74;101279.97;4216832;28;20089;-67
2022/06/15 02:18:07;;;;;;;4.20;1.52;;;;;;;24.82;41.01;101281.94;4216803;28;20032;-69
2022/06/15 02:20:26;;;;;;;2.47;1.60;;;;;;;24.81;40.66;101286.69;4217347;28;20113;-68
2022/06/15 02:22:32;;;;;;;1.88;1.60;;;;;;;24.82;40.97;101291.16;4217350;28;20097;-68
2022/06/15 02:24:38;;;;;;;6.22;1.88;;;;;;;24.76;40.93;101286.78;4217868;28;20031;-68
2022/06/15 02:26:40;;;;;;;2.47;1.65;;;;;;;24.82;40.89;101296.75;4217491;28;20048;-68
2022/06/15 02:28:47;;;;;;;2.95;1.90;;;;;;;24.81;40.71;101303.50;4216808;28;20036;-67
2022/06/15 02:30:50;;;;;;;2.85;1.73;;;;;;;24.82;40.78;101302.34;4217311;28;20036;-67
2022/06/15 02:32:52;;;;;;;2.95;1.88;;;;;;;24.82;41.03;101313.56;4201724;28;20044;-69
2022/06/15 02:34:53;;;;;;;3.20;1.85;;;;;;;24.81;40.79;101313.84;4217229;28;20379;-67
2022/06/15 02:36:56;;;;;;;3.72;1.73;;;;;;;24.81;40.90;101317.50;4216964;28;20441;-67
2022/06/15 02:38:57;;;;;;;2.28;1.77;;;;;;;24.81;41.12;101325.88;4212997;28;20040;-68
2022/06/15 02:40:58;;;;;;;2.85;2.00;;;;;;;24.82;41.14;101319.16;4206100;28;20056;-67
2022/06/15 02:43:01;;;;;;;2.83;1.80;;;;;;;24.81;40.68;101323.09;4208567;28;20045;-67
2022/06/15 02:45:09;;;;;;;2.55;1.40;;;;;;;24.81;40.94;101325.88;4210672;28;20044;-68
2022/06/15 02:47:10;;;;;;;3.30;1.95;;;;;;;24.82;40.75;101332.31;4215872;28;20483;-68
2022/06/15 02:49:12;;;;;;;3.67;1.70;;;;;;;24.77;40.64;101326.78;4216139;28;20036;-67
2022/06/15 02:51:33;;;;;;;3.30;1.60;;;;;;;24.80;41.13;101329.00;4216794;28;20074;-67
2022/06/15 02:53:37;;;;;;;2.33;1.70;;;;;;;24.80;41.03;101338.22;4203150;28;20041;-68
2022/06/15 02:55:40;;;;;;;2.70;1.77;;;;;;;24.81;40.82;101337.09;4203289;28;20066;-68
2022/06/15 02:58:00;;;;;;;3.38;1.85;;;;;;;24.81;41.04;101345.47;4199800;28;20033;-67
2022/06/15 03:00:03;;;;;;;3.70;1.48;;;;;;;24.83;40.85;101347.97;4200552;28;20044;-68
2022/06/15 03:02:04;;;;;;;4.55;1.77;;;;;;;24.79;40.76;101341.31;4216317;28;20040;-68
2022/06/15 03:04:06;;;;;;;2.47;1.80;;;;;;;24.83;40.76;101347.97;4214104;28;20426;-67
2022/06/15 03:06:12;;;;;;;3.00;1.73;;;;;;;24.82;40.88;101358.34;4216079;28;20435;-68
2022/06/15 03:08:14;;;;;;;8.48;1.67;;;;;;;24.82;40.76;101352.72;4215360;28;20101;-68
2022/06/15 03:10:16;;;;;;;3.13;1.83;;;;;;;24.81;40.67;101362.28;4216156;28;20032;-68
2022/06/15 03:12:17;;;;;;;5.90;1.90;;;;;;;24.81;40.62;101362.28;4215008;28;20392;-69
2022/06/15 03:14:18;;;;;;;5.40;2.20;;;;;;;24.82;40.87;101368.69;4216249;28;20023;-68
2022/06/15 03:16:20;;;;;;;2.35;1.83;;;;;;;24.81;40.79;101367.03;4216557;28;20545;-69
2022/06/15 03:18:22;;;;;;;3.95;1.50;;;;;;;24.80;40.73;101365.38;4216272;28;20475;-68
2022/06/15 03:20:26;;;;;;;4.55;1.95;;;;;;;24.80;40.51;101370.97;4216379;28;20056;-67
2022/06/15 03:22:28;;;;;;;4.43;1.70;;;;;;;24.78;40.86;101374.06;4216268;28;20024;-68
2022/06/15 03:24:29;;;;;;;3.53;1.83;;;;;;;24.79;40.83;101377.72;4214108;28;20342;-68
2022/06/15 03:26:30;;;;;;;4.45;1.75;;;;;;;24.79;40.77;101375.75;4216148;28;20036;-68
2022/06/15 03:28:34;;;;;;;4.22;1.70;;;;;;;24.79;40.51;101381.34;4216352;28;20044;-67
2022/06/15 03:30:35;;;;;;;4.85;1.92;;;;;;;24.79;40.92;101381.34;4215427;28;20474;-66
2022/06/15 03:32:37;;;;;;;5.68;1.80;;;;;;;24.78;40.61;101379.66;4216272;28;20062;-68
2022/06/15 03:34:38;;;;;;;4.10;1.52;;;;;;;24.78;40.64;101379.66;4217245;28;20048;-69
2022/06/15 03:36:39;;;;;;;5.43;1.95;;;;;;;24.77;40.79;101380.78;4216432;28;20036;-67
2022/06/15 03:38:44;;;;;;;2.45;1.70;;;;;;;24.77;41.05;101383.59;4207815;28;20036;-68
2022/06/15 03:40:48;;;;;;;2.35;1.80;;;;;;;24.77;40.82;101391.16;4216968;28;20504;-67
2022/06/15 03:42:50;;;;;;;4.28;1.70;;;;;;;24.77;41.03;101389.19;4218167;28;20028;-68
2022/06/15 03:44:53;;;;;;;4.15;1.65;;;;;;;24.77;41.01;101393.94;4216867;28;20040;-67
2022/06/15 03:46:54;;;;;;;4.45;1.98;;;;;;;24.71;40.90;101379.19;4216563;28;20040;-68
2022/06/15 03:48:59;;;;;;;2.90;1.65;;;;;;;24.74;40.69;101389.78;4216638;28;20459;-70
2022/06/15 03:51:00;;;;;;;2.83;1.58;;;;;;;24.77;40.84;101397.59;4216885;28;20032;-68
2022/06/15 03:53:02;;;;;;;2.53;1.90;;;;;;;24.76;40.51;101392.28;4218159;28;20040;-67
2022/06/15 03:55:04;;;;;;;4.55;2.03;;;;;;;24.73;40.83;101393.69;4209175;28;20102;-67
2022/06/15 03:57:07;;;;;;;2.58;2.05;;;;;;;24.77;40.90;101400.38;4214579;28;20036;-68
2022/06/15 03:59:09;;;;;;;1.70;1.60;;;;;;;24.76;40.90;101393.13;4216885;28;20049;-68
2022/06/15 04:01:11;;;;;;;4.35;2.00;;;;;;;24.76;40.84;101390.31;4216714;28;20082;-68
2022/06/15 04:03:12;;;;;;;4.72;1.95;;;;;;;24.75;40.67;101385.88;4216255;28;20036;-68
2022/06/15 04:05:20;;;;;;;3.17;1.83;;;;;;;24.75;40.78;101388.66;4215023;28;20430;-68
2022/06/15 04:09:41;;;;;;;2.78;2.20;;;;;;;24.75;40.70;101401.81;4199841;28;20841;-68
2022/06/15 04:11:59;;;;;;;3.45;1.92;;;;;;;24.75;40.44;101401.81;4213933;28;20036;-68
2022/06/15 04:14:01;;;;;;;2.17;1.95;;;;;;;24.74;40.65;101398.19;4212799;28;20085;-67
2022/06/15 04:16:07;;;;;;;4.43;1.90;;;;;;;24.56;40.49;101382.97;4215231;28;20476;-68
2022/06/15 04:18:08;;;;;;;2.80;1.83;;;;;;;24.73;40.41;101398.47;4212753;28;20105;-68
2022/06/15 04:20:33;;;;;;;2.33;1.80;;;;;;;24.73;40.69;101396.50;4215944;28;20410;-68
2022/06/15 04:22:34;;;;;;;2.15;1.60;;;;;;;24.74;40.66;101387.00;4215757;28;20160;-66
2022/06/15 04:24:39;;;;;;;2.05;1.77;;;;;;;24.71;40.54;101390.38;4214728;28;20093;-66
2022/06/15 04:26:41;;;;;;;;;;;;;;;24.70;40.43;101396.28;4213994;28;20039;-66
2022/06/15 04:28:43;;;;;;;2.05;1.85;;;;;;;24.75;40.64;101401.81;4215497;28;19916;-67
2022/06/15 04:30:46;;;;;;;2.38;1.73;;;;;;;24.69;40.38;101392.63;4216019;28;20040;-67
2022/06/15 04:32:48;;;;;;;3.72;1.48;;;;;;;24.75;40.43;101402.66;4215686;28;20093;-67
2022/06/15 04:34:49;;;;;;;1.83;1.63;;;;;;;24.73;40.36;101396.50;4215947;28;20036;-67
2022/06/15 04:36:50;;;;;;;1.80;1.65;;;;;;;24.68;40.64;101385.38;4216400;28;20455;-67
2022/06/15 04:38:52;;;;;;;2.70;2.00;;;;;;;24.71;40.30;101387.59;4214900;28;20040;-67
2022/06/15 04:41:03;;;;;;;3.35;1.85;;;;;;;24.69;40.30;101392.63;4215620;28;20529;-67
2022/06/15 04:43:07;;;;;;;2.42;1.90;;;;;;;24.69;40.14;101395.41;4215170;28;20035;-67
2022/06/15 04:45:10;;;;;;;2.25;1.75;;;;;;;24.69;40.26;101387.03;4215269;28;20093;-68
2022/06/15 04:47:12;;;;;;;2.00;1.65;;;;;;;24.69;40.40;101386.19;4213338;28;20036;-68
2022/06/15 04:49:13;;;;;;;1.80;1.70;;;;;;;24.69;40.11;101384.22;4215236;28;20052;-68
2022/06/15 04:51:20;;;;;;;2.53;1.42;;;;;;;24.69;40.47;101386.19;4216020;28;20089;-68
2022/06/15 04:53:22;;;;;;;2.80;1.77;;;;;;;24.64;40.18;101378.69;4215814;28;20040;-69
2022/06/15 04:55:25;;;;;;;2.13;1.75;;;;;;;24.66;40.31;101370.84;4215809;28;20093;-69
2022/06/15 04:57:26;;;;;;;2.20;1.65;;;;;;;24.42;40.03;101341.97;4213540;28;20040;-68
2022/06/15 04:59:27;;;;;;;1.67;1.50;;;;;;;24.67;39.88;101389.31;4214906;28;20028;-68
2022/06/15 05:01:29;;;;;;;1.90;1.70;;;;;;;24.66;40.39;101390.44;4214135;28;20352;-68
2022/06/15 05:03:30;;;;;;;2.10;1.90;;;;;;;24.57;40.18;101367.03;4215442;28;20036;-68
2022/06/15 05:05:34;;;;;;;1.90;1.73;;;;;;;24.65;40.05;101374.78;4198873;28;20098;-68
2022/06/15 05:07:35;;;;;;;2.72;2.20;;;;;;;24.64;40.23;101378.69;4197881;28;20098;-68
2022/06/15 05:09:37;;;;;;;2.58;2.10;;;;;;;24.61;40.06;101367.28;4197412;28;20036;-69
2022/06/15 05:11:38;;;;;;;2.88;1.90;;;;;;;24.61;40.29;101372.88;4197658;28;20077;-67
2022/06/15 05:13:40;;;;;;;1.90;1.65;;;;;;;24.64;40.39;101373.09;4198632;28;20107;-67
2022/06/15 05:15:41;;;;;;;3.70;1.60;;;;;;;24.64;39.99;101378.69;4198916;28;20036;-67
2022/06/15 05:17:44;;;;;;;2.25;1.88;;;;;;;24.62;40.19;101380.13;4197990;28;20048;-68
2022/06/15 05:19:46;;;;;;;1.80;1.60;;;;;;;24.61;39.98;101373.69;4199465;28;20025;-68
2022/06/15 05:21:47;;;;;;;1.75;1.63;;;;;;;24.60;39.75;101372.00;4198956;28;20048;-68
2022/06/15 05:23:54;;;;;;;2.08;1.75;;;;;;;24.60;40.06;101369.22;4198274;28;20446;-68
2022/06/15 05:26:01;;;;;;;1.70;1.50;;;;;;;24.61;40.05;101373.69;4198583;28;20032;-69
2022/06/15 05:28:05;;;;;;;1.70;1.60;;;;;;;24.55;39.85;101358.91;4198630;28;20045;-67
2022/06/15 05:30:07;;;;;;;1.60;1.50;;;;;;;24.61;39.86;101367.28;4198633;28;20419;-68
2022/06/15 05:32:09;;;;;;;1.80;1.70;;;;;;;24.55;40.28;101363.66;4197659;28;20041;-68
2022/06/15 05:34:10;;;;;;;2.55;1.83;;;;;;;24.59;40.24;101370.34;4197921;28;20044;-67
2022/06/15 05:36:15;;;;;;;1.75;1.60;;;;;;;24.61;40.28;101373.69;4198364;28;20040;-67
2022/06/15 05:38:16;;;;;;;2.00;1.80;;;;;;;24.61;40.11;101376.50;4198466;28;20041;-68
2022/06/15 05:40:17;;;;;;;2.88;1.80;;;;;;;24.60;40.41;101383.19;4197892;28;20098;-68
2022/06/15 05:42:19;;;;;;;1.80;1.65;;;;;;;24.59;40.28;101373.16;4198199;28;20488;-67
2022/06/15 05:46:31;;;;;;;2.63;1.98;;;;;;;24.61;40.35;101389.66;4198116;28;20028;-67
2022/06/15 05:48:32;;;;;;;1.65;1.55;;;;;;;24.60;40.16;101383.19;4198452;28;20041;-67
2022/06/15 05:50:33;;;;;;;2.65;1.90;;;;;;;24.60;40.01;101391.59;4197608;28;20086;-68
2022/06/15 05:52:35;;;;;;;3.42;1.63;;;;;;;24.61;40.37;101398.06;4197925;28;20095;-67
2022/06/15 05:54:36;;;;;;;2.05;1.50;;;;;;;24.60;40.19;101411.19;4198469;28;20051;-67
2022/06/15 05:56:37;;;;;;;2.05;1.63;;;;;;;24.60;40.09;101425.16;4205224;28;20040;-67
2022/06/15 05:58:39;;;;;;;1.85;1.60;;;;;;;24.60;40.36;101416.78;4214451;28;20078;-67
2022/06/15 06:00:40;;;;;;;1.70;1.60;;;;;;;24.59;40.19;101420.72;4214724;28;20032;-67
2022/06/15 06:02:41;;;;;;;2.08;1.88;;;;;;;24.59;40.14;101426.31;4214656;28;20483;-67
2022/06/15 06:04:43;;;;;;;2.00;1.80;;;;;;;24.58;39.73;101421.84;4214796;28;20044;-68
2022/06/15 06:06:50;;;;;;;1.92;1.73;;;;;;;24.50;40.17;101405.69;4214837;28;20032;-68
2022/06/15 06:08:53;;;;;;;2.20;1.60;;;;;;;24.58;40.02;101419.06;4214937;28;20102;-67
2022/06/15 06:10:54;;;;;;;2.22;1.80;;;;;;;24.56;40.20;101421.31;4214541;28;20503;-67
2022/06/15 06:12:55;;;;;;;1.90;1.63;;;;;;;24.57;40.14;101428.59;4211847;28;20100;-67
2022/06/15 06:15:02;;;;;;;3.17;1.88;;;;;;;24.57;39.58;101431.38;4197948;28;20028;-68
2022/06/15 06:17:07;;;;;;;2.05;1.75;;;;;;;24.55;39.80;101431.66;4197248;28;20150;-67
2022/06/15 06:19:08;;;;;;;2.10;1.90;;;;;;;24.56;39.85;101438.13;4197909;28;20048;-67
2022/06/15 06:21:10;;;;;;;2.85;1.70;;;;;;;24.55;39.67;101428.03;4197340;28;20434;-68
2022/06/15 06:23:11;;;;;;;2.20;2.00;;;;;;;24.55;39.92;101436.41;4197356;28;20041;-67
2022/06/15 06:25:13;;;;;;;1.70;1.60;;;;;;;24.54;39.86;101431.97;4197756;28;20052;-67
2022/06/15 06:27:15;;;;;;;1.70;1.60;;;;;;;24.54;39.87;101434.75;4197618;28;20062;-67
2022/06/15 06:29:16;;;;;;;3.42;1.90;;;;;;;24.53;39.65;101438.69;4199575;28;20040;-67
2022/06/15 06:31:21;;;;;;;1.67;1.52;;;;;;;24.55;39.81;101436.41;4200912;28;20036;-67
2022/06/15 06:33:22;;;;;;;1.73;1.63;;;;;;;24.52;39.83;101431.44;4200770;28;20372;-67
2022/06/15 06:35:24;;;;;;;1.70;1.58;;;;;;;24.53;39.88;101427.50;4200801;28;20158;-67
2022/06/15 06:37:26;;;;;;;2.58;1.63;;;;;;;24.52;39.78;101429.47;4200277;28;20102;-67
2022/06/15 06:39:29;;;;;;;1.98;1.77;;;;;;;24.51;39.58;101429.75;4200816;28;20410;-67
2022/06/15 06:41:32;;;;;;;2.20;2.00;;;;;;;24.50;39.69;101428.91;4200649;28;20476;-67
2022/06/15 06:43:33;;;;;;;1.98;1.75;;;;;;;24.49;39.46;101423.63;4200626;28;20041;-67
2022/06/15 06:45:34;;;;;;;1.67;1.58;;;;;;;24.48;39.78;101419.16;4199675;28;20098;-67
2022/06/15 06:47:36;;;;;;;2.08;1.70;;;;;;;24.49;39.66;101426.41;4199966;28;20036;-66
2022/06/15 06:49:37;;;;;;;2.03;1.83;;;;;;;24.48;39.54;101422.78;4200469;28;20041;-67
2022/06/15 06:51:40;;;;;;;1.95;1.75;;;;;;;24.48;39.52;101433.97;4200008;28;20048;-67
2022/06/15 06:53:41;;;;;;;2.00;1.70;;;;;;;24.47;39.68;101423.91;4200481;28;20121;-67
2022/06/15 06:55:45;;;;;;;3.30;1.77;;;;;;;24.48;39.63;101431.19;4200489;28;20033;-67
2022/06/15 06:57:47;;;;;;;3.72;2.10;;;;;;;24.49;39.40;101429.22;4199839;28;20044;-66
2022/06/15 06:59:48;;;;;;;1.92;1.75;;;;;;;24.45;39.43;101430.91;4199986;28;20098;-67
2022/06/15 07:01:49;;;;;;;1.70;1.30;;;;;;;24.48;39.55;101433.16;4199714;28;20442;-67
2022/06/15 07:03:51;;;;;;;1.92;1.67;;;;;;;24.47;39.53;101432.31;4200161;28;20037;-67
2022/06/15 07:06:08;;;;;;;1.67;1.40;;;;;;;24.34;39.50;101408.59;4200103;28;20044;-67
2022/06/15 07:08:12;;;;;;;1.67;1.58;;;;;;;24.47;39.28;101428.69;4199463;28;20132;-67
2022/06/15 07:10:14;;;;;;;1.65;1.42;;;;;;;24.47;39.09;101437.06;4199841;28;20037;-67
2022/06/15 07:12:19;;;;;;;1.65;1.55;;;;;;;24.44;39.49;101432.06;4200019;28;20111;-67
2022/06/15 07:14:20;;;;;;;1.92;1.50;;;;;;;24.45;39.18;101428.13;4199739;28;20044;-67
2022/06/15 07:16:21;;;;;;;3.20;1.70;;;;;;;24.43;39.41;101430.41;4209181;28;20032;-67
2022/06/15 07:18:23;;;;;;;1.85;1.38;;;;;;;24.44;39.28;101435.69;4215188;28;20045;-67
2022/06/15 07:20:26;;;;;;;2.00;1.60;;;;;;;24.43;39.25;101441.59;4216142;28;20082;-67
2022/06/15 07:22:27;;;;;;;3.85;1.60;;;;;;;24.42;39.16;101431.50;4216545;28;20052;-68
2022/06/15 07:24:29;;;;;;;1.50;1.40;;;;;;;24.42;39.33;101443.56;4216880;28;20085;-67
2022/06/15 07:26:42;;;;;;;2.17;1.60;;;;;;;24.41;39.24;101447.44;4215935;28;20437;-67
2022/06/15 07:28:43;;;;;;;1.77;1.67;;;;;;;24.41;39.15;101453.03;4216308;28;20097;-68
2022/06/15 07:30:47;;;;;;;2.05;1.42;;;;;;;24.41;38.95;101452.22;4215795;28;20036;-67
2022/06/15 07:32:49;;;;;;;1.83;1.50;;;;;;;24.40;39.10;101454.19;4216780;28;20047;-68
2022/06/15 07:34:51;;;;;;;1.88;1.50;;;;;;;24.39;39.30;101457.28;4216572;28;20050;-67
2022/06/15 07:36:53;;;;;;;1.65;1.55;;;;;;;24.40;38.92;101458.94;4219272;28;20161;-68
2022/06/15 07:38:57;;;;;;;2.38;1.50;;;;;;;24.39;39.25;101463.72;4219922;28;20047;-67
2022/06/15 07:40:59;;;;;;;1.80;1.60;;;;;;;24.27;39.16;101441.66;4219902;28;20040;-67
2022/06/15 07:43:00;;;;;;;2.10;1.27;;;;;;;24.40;38.92;101458.94;4215596;28;20029;-67
2022/06/15 07:45:02;;;;;;;2.00;1.67;;;;;;;24.39;39.09;101460.91;4205087;28;20037;-67
2022/06/15 07:51:57;;;;;;;1.90;1.48;;;;;;;24.39;39.29;101471.25;4203189;28;20521;-67
2022/06/15 07:54:08;;;;;;;1.40;1.25;;;;;;;24.39;39.26;101471.25;4199758;28;20036;-67
2022/06/15 07:56:13;;;;;;;1.63;1.52;;;;;;;24.39;39.03;101465.66;4199576;28;20066;-67
2022/06/15 07:58:24;;;;;;;2.00;1.45;;;;;;;24.29;38.97;101449.78;4198807;28;20033;-67
2022/06/15 08:00:28;;;;;;;2.38;1.60;;;;;;;24.38;38.97;101469.59;4199679;28;20028;-67
2022/06/15 08:02:29;;;;;;;1.93;1.50;;;;;;;24.37;38.93;101470.72;4201622;28;20044;-67
2022/06/15 08:04:31;;;;;;;3.33;1.55;;;;;;;24.37;38.94;101470.72;4201313;28;20033;-69
2022/06/15 08:06:37;;;;;;;1.50;1.40;;;;;;;24.34;38.95;101475.75;4200034;28;20036;-68
2022/06/15 08:08:39;;;;;;;1.83;1.40;;;;;;;24.34;39.26;101478.53;4198985;28;20058;-67
2022/06/15 08:10:43;;;;;;;2.00;1.48;;;;;;;24.33;39.11;101479.66;4199433;28;20106;-68
2022/06/15 08:12:45;;;;;;;1.58;1.35;;;;;;;24.31;38.99;101473.50;4199047;28;20036;-67
2022/06/15 08:14:52;;;;;;;1.75;1.40;;;;;;;24.33;39.02;101476.03;4200201;28;20033;-67
2022/06/15 08:16:55;;;;;;;1.63;1.52;;;;;;;24.34;38.91;101475.75;4199528;28;20040;-66
2022/06/15 08:19:00;;;;;;;1.70;1.60;;;;;;;24.34;39.16;101486.09;4198096;28;20040;-67
2022/06/15 08:21:05;;;;;;;1.70;1.60;;;;;;;24.32;39.24;101483.56;4199124;28;20040;-67
2022/06/15 08:23:12;;;;;;;1.70;1.30;;;;;;;24.33;38.96;101488.06;4201088;28;20035;-67
2022/06/15 08:25:21;;;;;;;1.88;1.50;;;;;;;24.32;38.83;101483.56;4215829;28;20475;-67
2022/06/15 08:27:26;;;;;;;2.05;1.63;;;;;;;24.29;39.33;101477.75;4215565;28;20036;-67
2022/06/15 08:29:27;;;;;;;;;;;;;;;24.30;39.13;101487.81;4215941;28;20036;-68
2022/06/15 08:31:28;;;;;;;1.73;1.30;;;;;;;24.34;38.98;101475.75;4215189;28;19957;-67
2022/06/15 08:33:30;;;;;;;1.90;1.80;;;;;;;24.33;39.09;101484.44;4215337;28;20036;-67
2022/06/15 08:35:32;;;;;;;2.25;1.50;;;;;;;24.33;38.75;101485.25;4215067;28;20047;-67
2022/06/15 08:37:33;;;;;;;1.42;1.33;;;;;;;24.33;38.70;101490.03;4215060;28;20097;-67
2022/06/15 08:39:35;;;;;;;1.60;1.42;;;;;;;24.31;39.17;101484.69;4215370;28;20093;-67
2022/06/15 08:41:50;;;;;;;1.92;1.50;;;;;;;24.29;39.25;101483.34;4215433;28;20036;-67
2022/06/15 08:44:00;;;;;;;3.15;1.38;;;;;;;24.31;38.91;101497.84;4215489;28;20368;-67
2022/06/15 08:46:14;;;;;;;1.60;1.42;;;;;;;24.30;38.93;101488.63;4214789;28;20474;-67
2022/06/15 08:48:42;;;;;;;2.08;1.58;;;;;;;24.30;39.23;101496.19;4214790;28;20053;-67
2022/06/15 08:51:09;;;;;;;1.58;1.30;;;;;;;24.28;38.80;101498.41;4202977;28;20108;-67
2022/06/15 08:53:34;;;;;;;1.50;1.40;;;;;;;24.30;38.96;101497.03;4215115;28;20040;-67
2022/06/15 08:55:44;;;;;;;3.63;1.45;;;;;;;24.30;38.72;101499.81;4214981;28;20156;-67
2022/06/15 08:58:06;;;;;;;1.67;1.40;;;;;;;24.28;38.91;101490.91;4213154;28;20048;-68
2022/06/15 09:00:21;;;;;;;2.25;1.60;;;;;;;24.28;39.20;101496.50;4214790;28;20089;-67
2022/06/15 09:02:51;;;;;;;1.63;1.20;;;;;;;24.30;38.83;101491.44;4214579;28;20388;-66
2022/06/15 09:05:12;;;;;;;1.40;1.30;;;;;;;24.27;38.80;101494.78;4179463;28;20431;-67
2022/06/15 09:07:19;;;;;;;1.67;1.40;;;;;;;24.28;38.94;101504.88;4214478;28;20044;-67
2022/06/15 09:09:48;;;;;;;1.67;1.27;;;;;;;24.27;38.76;101507.94;4214729;28;20074;-67
2022/06/15 09:11:52;;;;;;;1.58;1.48;;;;;;;24.26;38.65;101506.28;4198053;28;20039;-67
2022/06/15 09:14:25;;;;;;;1.52;1.35;;;;;;;24.25;38.84;101516.63;4213658;28;20093;-67
2022/06/15 09:16:32;;;;;;;1.33;1.20;;;;;;;24.26;38.74;101523.91;4215006;28;20031;-67
2022/06/15 09:18:36;;;;;;;1.92;1.13;;;;;;;24.25;38.79;101527.81;4211996;28;20442;-67
2022/06/15 09:20:52;;;;;;;1.20;1.10;;;;;;;24.25;39.02;101533.41;4213415;28;20085;-67
2022/06/15 09:23:02;;;;;;;1.40;1.20;;;;;;;24.24;38.95;101537.34;4211587;28;20045;-67
2022/06/15 09:25:12;;;;;;;1.30;1.20;;;;;;;24.24;38.65;101531.75;4212829;28;20044;-67
2022/06/15 09:27:33;;;;;;;1.92;1.83;;;;;;;24.22;39.16;101538.75;4213215;28;20044;-67
2022/06/15 09:29:36;;;;;;;1.40;1.30;;;;;;;24.25;39.21;101527.81;4213820;28;20093;-67
2022/06/15 09:31:49;;;;;;;1.63;1.27;;;;;;;24.26;39.75;101523.06;4212401;28;20101;-67
2022/06/15 09:34:01;;;;;;;1.70;1.35;;;;;;;24.28;40.09;101538.44;4213781;28;20048;-67
2022/06/15 09:36:10;;;;;;;3.22;1.20;;;;;;;24.31;40.39;101526.66;4214429;28;20032;-67
2022/06/15 09:38:13;;;;;;;1.58;1.20;;;;;;;24.33;40.85;101530.00;4213397;28;20036;-67
2022/06/15 09:40:15;;;;;;;1.73;1.60;;;;;;;24.37;40.77;101543.44;4212899;28;20040;-67
2022/06/15 09:42:21;;;;;;;1.40;1.30;;;;;;;24.38;41.04;101547.94;4203170;28;20040;-67
2022/06/15 09:44:47;;;;;;;1.40;1.27;;;;;;;24.40;41.12;101554.06;4214371;28;20102;-67
2022/06/15 09:47:14;;;;;;;2.20;1.23;;;;;;;24.40;41.80;101546.50;4198683;28;20110;-67
2022/06/15 09:49:37;;;;;;;1.20;1.10;;;;;;;24.45;41.77;101554.00;4212657;28;20567;-67
2022/06/15 09:51:48;;;;;;;1.35;1.25;;;;;;;24.47;42.12;101551.78;4212010;28;20090;-67
2022/06/15 09:53:52;;;;;;;1.38;1.20;;;;;;;24.50;42.17;101552.00;4211196;28;20468;-67
2022/06/15 09:56:04;;;;;;;1.40;1.30;;;;;;;24.51;42.20;101558.44;4213542;28;20089;-67
2022/06/15 09:58:13;;;;;;;1.20;1.10;;;;;;;24.52;42.14;101552.56;4211761;28;20069;-67
2022/06/15 10:00:15;;;;;;;1.38;1.27;;;;;;;24.54;42.56;101553.09;4213759;28;20044;-67